sensor_id;sensor_type;location;lat;lon;timestamp;temperature;humidity
8591;DHT22;4333;48.322;14.340;2024-01-11T00:00:52;-5.60;99.90
8591;DHT22;4333;48.322;14.340;2024-01-11T00:03:21;-5.60;99.90
8591;DHT22;4333;48.322;14.340;2024-01-11T00:05:46;-5.60;99.90
8591;DHT22;4333;48.322;14.340;2024-01-11T00:08:14;-5.60;99.90
8591;DHT22;4333;48.322;14.340;2024-01-11T00:10:40;-5.60;99.90
8591;DHT22;4333;48.322;14.340;2024-01-11T00:13:08;-5.70;99.90
8591;DHT22;4333;48.322;14.340;2024-01-11T00:15:34;-5.60;99.90
8591;DHT22;4333;48.322;14.340;2024-01-11T00:17:59;-5.40;99.90
8591;DHT22;4333;48.322;14.340;2024-01-11T00:20:27;-5.40;99.90
8591;DHT22;4333;48.322;14.340;2024-01-11T00:22:55;-5.50;99.90
8591;DHT22;4333;48.322;14.340;2024-01-11T00:25:22;-5.50;99.90
8591;DHT22;4333;48.322;14.340;2024-01-11T00:27:53;-5.60;99.90
8591;DHT22;4333;48.322;14.340;2024-01-11T00:30:19;-5.70;99.90
8591;DHT22;4333;48.322;14.340;2024-01-11T00:32:45;-5.70;99.90
8591;DHT22;4333;48.322;14.340;2024-01-11T00:35:13;-5.70;99.90
8591;DHT22;4333;48.322;14.340;2024-01-11T00:37:39;-5.70;99.90
8591;DHT22;4333;48.322;14.340;2024-01-11T00:40:05;-5.80;99.90
8591;DHT22;4333;48.322;14.340;2024-01-11T00:42:31;-5.80;99.90
8591;DHT22;4333;48.322;14.340;2024-01-11T00:44:59;-5.70;99.90
8591;DHT22;4333;48.322;14.340;2024-01-11T00:47:25;-5.60;99.90
8591;DHT22;4333;48.322;14.340;2024-01-11T00:49:52;-5.70;99.90
8591;DHT22;4333;48.322;14.340;2024-01-11T00:52:20;-5.70;99.90
8591;DHT22;4333;48.322;14.340;2024-01-11T00:54:45;-5.70;99.90
8591;DHT22;4333;48.322;14.340;2024-01-11T00:57:13;-5.70;99.90
8591;DHT22;4333;48.322;14.340;2024-01-11T00:59:42;-5.80;99.90
8591;DHT22;4333;48.322;14.340;2024-01-11T01:02:08;-5.80;99.90
8591;DHT22;4333;48.322;14.340;2024-01-11T01:04:37;-5.90;99.90
8591;DHT22;4333;48.322;14.340;2024-01-11T01:07:03;-5.90;99.90
8591;DHT22;4333;48.322;14.340;2024-01-11T01:09:29;-6.00;99.90
8591;DHT22;4333;48.322;14.340;2024-01-11T01:11:56;-6.00;99.90
8591;DHT22;4333;48.322;14.340;2024-01-11T01:14:23;-6.00;99.90
8591;DHT22;4333;48.322;14.340;2024-01-11T01:16:49;-5.90;99.90
8591;DHT22;4333;48.322;14.340;2024-01-11T01:19:15;-6.00;99.90
8591;DHT22;4333;48.322;14.340;2024-01-11T01:21:43;-6.00;99.90
8591;DHT22;4333;48.322;14.340;2024-01-11T01:24:09;-6.00;99.90
8591;DHT22;4333;48.322;14.340;2024-01-11T01:26:36;-6.00;99.90
8591;DHT22;4333;48.322;14.340;2024-01-11T01:29:02;-6.00;99.90
8591;DHT22;4333;48.322;14.340;2024-01-11T01:31:28;-6.00;99.90
8591;DHT22;4333;48.322;14.340;2024-01-11T01:33:56;-6.00;99.90
8591;DHT22;4333;48.322;14.340;2024-01-11T01:36:22;-6.00;99.90
8591;DHT22;4333;48.322;14.340;2024-01-11T01:38:47;-6.00;99.90
8591;DHT22;4333;48.322;14.340;2024-01-11T01:41:13;-6.10;99.90
8591;DHT22;4333;48.322;14.340;2024-01-11T01:43:39;-6.10;99.90
8591;DHT22;4333;48.322;14.340;2024-01-11T01:46:05;-6.10;99.90
8591;DHT22;4333;48.322;14.340;2024-01-11T01:48:32;-6.10;99.90
8591;DHT22;4333;48.322;14.340;2024-01-11T01:50:58;-6.20;99.90
8591;DHT22;4333;48.322;14.340;2024-01-11T01:53:24;-6.20;99.90
8591;DHT22;4333;48.322;14.340;2024-01-11T01:55:53;-6.20;99.90
8591;DHT22;4333;48.322;14.340;2024-01-11T01:58:20;-6.20;99.90
8591;DHT22;4333;48.322;14.340;2024-01-11T02:00:48;-6.20;99.90
8591;DHT22;4333;48.322;14.340;2024-01-11T02:03:17;-6.10;99.90
8591;DHT22;4333;48.322;14.340;2024-01-11T02:05:45;-6.20;99.90
8591;DHT22;4333;48.322;14.340;2024-01-11T02:08:16;-6.20;99.90
8591;DHT22;4333;48.322;14.340;2024-01-11T02:10:43;-6.20;99.90
8591;DHT22;4333;48.322;14.340;2024-01-11T02:13:09;-6.20;99.90
8591;DHT22;4333;48.322;14.340;2024-01-11T02:15:36;-6.20;99.90
8591;DHT22;4333;48.322;14.340;2024-01-11T02:18:02;-6.20;99.90
8591;DHT22;4333;48.322;14.340;2024-01-11T02:20:28;-6.20;99.90
8591;DHT22;4333;48.322;14.340;2024-01-11T02:23:01;-6.20;99.90
8591;DHT22;4333;48.322;14.340;2024-01-11T02:25:27;-6.20;99.90
8591;DHT22;4333;48.322;14.340;2024-01-11T02:27:55;-6.20;99.90
8591;DHT22;4333;48.322;14.340;2024-01-11T02:30:20;-6.30;99.90
8591;DHT22;4333;48.322;14.340;2024-01-11T02:32:48;-6.40;99.90
8591;DHT22;4333;48.322;14.340;2024-01-11T02:35:17;-6.40;99.90
8591;DHT22;4333;48.322;14.340;2024-01-11T02:37:46;-6.40;99.90
8591;DHT22;4333;48.322;14.340;2024-01-11T02:40:13;-6.50;99.90
8591;DHT22;4333;48.322;14.340;2024-01-11T02:42:40;-6.50;99.90
8591;DHT22;4333;48.322;14.340;2024-01-11T02:45:07;-6.50;99.90
8591;DHT22;4333;48.322;14.340;2024-01-11T02:47:35;-6.50;99.90
8591;DHT22;4333;48.322;14.340;2024-01-11T02:50:01;-6.50;99.90
8591;DHT22;4333;48.322;14.340;2024-01-11T02:52:27;-6.50;99.90
8591;DHT22;4333;48.322;14.340;2024-01-11T02:54:52;-6.50;99.90
8591;DHT22;4333;48.322;14.340;2024-01-11T02:57:18;-6.50;99.90
8591;DHT22;4333;48.322;14.340;2024-01-11T02:59:44;-6.50;99.90
8591;DHT22;4333;48.322;14.340;2024-01-11T03:02:09;-6.50;99.90
8591;DHT22;4333;48.322;14.340;2024-01-11T03:04:35;-6.60;99.90
8591;DHT22;4333;48.322;14.340;2024-01-11T03:07:01;-6.60;99.90
8591;DHT22;4333;48.322;14.340;2024-01-11T03:09:28;-6.60;99.90
8591;DHT22;4333;48.322;14.340;2024-01-11T03:11:54;-6.60;99.90
8591;DHT22;4333;48.322;14.340;2024-01-11T03:14:20;-6.60;99.90
8591;DHT22;4333;48.322;14.340;2024-01-11T03:16:46;-6.70;99.90
8591;DHT22;4333;48.322;14.340;2024-01-11T03:19:12;-6.70;99.90
8591;DHT22;4333;48.322;14.340;2024-01-11T03:21:46;-6.80;99.90
8591;DHT22;4333;48.322;14.340;2024-01-11T03:24:13;-6.70;99.90
8591;DHT22;4333;48.322;14.340;2024-01-11T03:26:41;-6.80;99.90
8591;DHT22;4333;48.322;14.340;2024-01-11T03:29:07;-6.90;99.90
8591;DHT22;4333;48.322;14.340;2024-01-11T03:31:32;-6.90;99.90
8591;DHT22;4333;48.322;14.340;2024-01-11T03:34:03;-6.90;99.90
8591;DHT22;4333;48.322;14.340;2024-01-11T03:36:31;-6.80;99.90
8591;DHT22;4333;48.322;14.340;2024-01-11T03:38:56;-6.90;99.90
8591;DHT22;4333;48.322;14.340;2024-01-11T03:41:22;-6.90;99.90
8591;DHT22;4333;48.322;14.340;2024-01-11T03:43:50;-6.80;99.90
8591;DHT22;4333;48.322;14.340;2024-01-11T03:46:15;-6.80;99.90
8591;DHT22;4333;48.322;14.340;2024-01-11T03:48:41;-6.60;99.90
8591;DHT22;4333;48.322;14.340;2024-01-11T03:51:07;-6.60;99.90
8591;DHT22;4333;48.322;14.340;2024-01-11T03:53:36;-6.50;99.90
8591;DHT22;4333;48.322;14.340;2024-01-11T03:56:02;-6.50;99.90
8591;DHT22;4333;48.322;14.340;2024-01-11T03:58:28;-6.60;99.90
8591;DHT22;4333;48.322;14.340;2024-01-11T04:00:54;-6.60;99.90
8591;DHT22;4333;48.322;14.340;2024-01-11T04:03:19;-6.60;99.90
8591;DHT22;4333;48.322;14.340;2024-01-11T04:05:45;-6.60;99.90
8591;DHT22;4333;48.322;14.340;2024-01-11T04:08:11;-6.60;99.90
8591;DHT22;4333;48.322;14.340;2024-01-11T04:10:37;-6.70;99.90
8591;DHT22;4333;48.322;14.340;2024-01-11T04:13:02;-6.80;99.90
8591;DHT22;4333;48.322;14.340;2024-01-11T04:15:28;-6.80;99.90
8591;DHT22;4333;48.322;14.340;2024-01-11T04:17:56;-6.80;99.90
8591;DHT22;4333;48.322;14.340;2024-01-11T04:20:22;-6.80;99.90
8591;DHT22;4333;48.322;14.340;2024-01-11T04:22:50;-6.90;99.90
8591;DHT22;4333;48.322;14.340;2024-01-11T04:25:18;-6.90;99.90
8591;DHT22;4333;48.322;14.340;2024-01-11T04:27:46;-6.90;99.90
8591;DHT22;4333;48.322;14.340;2024-01-11T04:30:17;-6.90;99.90
8591;DHT22;4333;48.322;14.340;2024-01-11T04:32:42;-6.80;99.90
8591;DHT22;4333;48.322;14.340;2024-01-11T04:35:08;-6.90;99.90
8591;DHT22;4333;48.322;14.340;2024-01-11T04:37:34;-7.00;99.90
8591;DHT22;4333;48.322;14.340;2024-01-11T04:40:01;-6.90;99.90
8591;DHT22;4333;48.322;14.340;2024-01-11T04:42:27;-7.00;99.90
8591;DHT22;4333;48.322;14.340;2024-01-11T04:44:55;-7.00;99.90
8591;DHT22;4333;48.322;14.340;2024-01-11T04:47:21;-7.00;99.90
8591;DHT22;4333;48.322;14.340;2024-01-11T04:49:47;-7.00;99.90
8591;DHT22;4333;48.322;14.340;2024-01-11T04:52:13;-6.90;99.90
8591;DHT22;4333;48.322;14.340;2024-01-11T04:54:39;-6.80;99.90
8591;DHT22;4333;48.322;14.340;2024-01-11T04:57:07;-6.80;99.90
8591;DHT22;4333;48.322;14.340;2024-01-11T04:59:33;-7.00;99.90
8591;DHT22;4333;48.322;14.340;2024-01-11T05:01:58;-7.00;99.90
8591;DHT22;4333;48.322;14.340;2024-01-11T05:04:24;-7.00;99.90
8591;DHT22;4333;48.322;14.340;2024-01-11T05:06:52;-6.80;99.90
8591;DHT22;4333;48.322;14.340;2024-01-11T05:09:18;-6.70;99.90
8591;DHT22;4333;48.322;14.340;2024-01-11T05:11:43;-6.60;99.90
8591;DHT22;4333;48.322;14.340;2024-01-11T05:14:09;-6.50;99.90
8591;DHT22;4333;48.322;14.340;2024-01-11T05:16:35;-6.60;99.90
8591;DHT22;4333;48.322;14.340;2024-01-11T05:19:01;-6.70;99.90
8591;DHT22;4333;48.322;14.340;2024-01-11T05:21:27;-6.90;99.90
8591;DHT22;4333;48.322;14.340;2024-01-11T05:23:52;-7.10;99.90
8591;DHT22;4333;48.322;14.340;2024-01-11T05:26:18;-7.00;99.90
8591;DHT22;4333;48.322;14.340;2024-01-11T05:28:46;-6.90;99.90
8591;DHT22;4333;48.322;14.340;2024-01-11T05:31:12;-6.90;99.90
8591;DHT22;4333;48.322;14.340;2024-01-11T05:33:39;-6.90;99.90
8591;DHT22;4333;48.322;14.340;2024-01-11T05:36:05;-7.00;99.90
8591;DHT22;4333;48.322;14.340;2024-01-11T05:38:31;-6.90;99.90
8591;DHT22;4333;48.322;14.340;2024-01-11T05:40:58;-6.90;99.90
8591;DHT22;4333;48.322;14.340;2024-01-11T05:43:23;-6.90;99.90
8591;DHT22;4333;48.322;14.340;2024-01-11T05:45:50;-7.00;99.90
8591;DHT22;4333;48.322;14.340;2024-01-11T05:48:18;-7.00;99.90
8591;DHT22;4333;48.322;14.340;2024-01-11T05:50:46;-7.10;99.90
8591;DHT22;4333;48.322;14.340;2024-01-11T05:53:14;-7.10;99.90
8591;DHT22;4333;48.322;14.340;2024-01-11T05:55:40;-7.20;99.90
8591;DHT22;4333;48.322;14.340;2024-01-11T05:58:06;-7.30;99.90
8591;DHT22;4333;48.322;14.340;2024-01-11T06:00:32;-7.30;99.90
8591;DHT22;4333;48.322;14.340;2024-01-11T06:03:00;-7.30;99.90
8591;DHT22;4333;48.322;14.340;2024-01-11T06:05:26;-7.30;99.90
8591;DHT22;4333;48.322;14.340;2024-01-11T06:07:52;-7.30;99.90
8591;DHT22;4333;48.322;14.340;2024-01-11T06:10:18;-7.30;99.90
8591;DHT22;4333;48.322;14.340;2024-01-11T06:12:43;-7.30;99.90
8591;DHT22;4333;48.322;14.340;2024-01-11T06:15:10;-7.30;99.90
8591;DHT22;4333;48.322;14.340;2024-01-11T06:17:36;-7.30;99.90
8591;DHT22;4333;48.322;14.340;2024-01-11T06:20:04;-7.30;99.90
8591;DHT22;4333;48.322;14.340;2024-01-11T06:22:33;-7.20;99.90
8591;DHT22;4333;48.322;14.340;2024-01-11T06:24:58;-7.20;99.90
8591;DHT22;4333;48.322;14.340;2024-01-11T06:27:25;-7.20;99.90
8591;DHT22;4333;48.322;14.340;2024-01-11T06:29:50;-7.20;99.90
8591;DHT22;4333;48.322;14.340;2024-01-11T06:32:16;-7.20;99.90
8591;DHT22;4333;48.322;14.340;2024-01-11T06:34:42;-7.20;99.90
8591;DHT22;4333;48.322;14.340;2024-01-11T06:37:11;-7.20;99.90
8591;DHT22;4333;48.322;14.340;2024-01-11T06:39:37;-7.30;99.90
8591;DHT22;4333;48.322;14.340;2024-01-11T06:42:03;-7.40;99.90
8591;DHT22;4333;48.322;14.340;2024-01-11T06:44:33;-7.40;99.90
8591;DHT22;4333;48.322;14.340;2024-01-11T06:47:00;-7.40;99.90
8591;DHT22;4333;48.322;14.340;2024-01-11T06:49:31;-7.40;99.90
8591;DHT22;4333;48.322;14.340;2024-01-11T06:51:56;-7.40;99.90
8591;DHT22;4333;48.322;14.340;2024-01-11T06:54:32;-7.40;99.90
8591;DHT22;4333;48.322;14.340;2024-01-11T06:57:00;-7.40;99.90
8591;DHT22;4333;48.322;14.340;2024-01-11T06:59:29;-7.40;99.90
8591;DHT22;4333;48.322;14.340;2024-01-11T07:01:55;-7.50;99.90
8591;DHT22;4333;48.322;14.340;2024-01-11T07:04:20;-7.40;99.90
8591;DHT22;4333;48.322;14.340;2024-01-11T07:06:48;-7.40;99.90
8591;DHT22;4333;48.322;14.340;2024-01-11T07:09:15;-7.40;99.90
8591;DHT22;4333;48.322;14.340;2024-01-11T07:11:43;-7.40;99.90
8591;DHT22;4333;48.322;14.340;2024-01-11T07:14:09;-7.40;99.90
8591;DHT22;4333;48.322;14.340;2024-01-11T07:16:35;-7.40;99.90
8591;DHT22;4333;48.322;14.340;2024-01-11T07:19:01;-7.30;99.90
8591;DHT22;4333;48.322;14.340;2024-01-11T07:21:27;-7.30;99.90
8591;DHT22;4333;48.322;14.340;2024-01-11T07:24:01;-7.20;99.90
8591;DHT22;4333;48.322;14.340;2024-01-11T07:26:27;-7.00;99.90
8591;DHT22;4333;48.322;14.340;2024-01-11T07:28:53;-6.80;99.90
8591;DHT22;4333;48.322;14.340;2024-01-11T07:31:22;-6.80;99.90
8591;DHT22;4333;48.322;14.340;2024-01-11T07:33:48;-6.80;99.90
8591;DHT22;4333;48.322;14.340;2024-01-11T07:36:14;-6.80;99.90
8591;DHT22;4333;48.322;14.340;2024-01-11T07:38:40;-6.70;99.90
8591;DHT22;4333;48.322;14.340;2024-01-11T07:41:06;-6.60;99.90
8591;DHT22;4333;48.322;14.340;2024-01-11T07:43:34;-6.60;99.90
8591;DHT22;4333;48.322;14.340;2024-01-11T07:46:01;-6.60;99.90
8591;DHT22;4333;48.322;14.340;2024-01-11T07:48:29;-6.60;99.90
8591;DHT22;4333;48.322;14.340;2024-01-11T07:50:56;-6.60;99.90
8591;DHT22;4333;48.322;14.340;2024-01-11T07:53:22;-6.40;99.90
8591;DHT22;4333;48.322;14.340;2024-01-11T07:55:48;-6.30;99.90
8591;DHT22;4333;48.322;14.340;2024-01-11T07:58:16;-6.30;99.90
8591;DHT22;4333;48.322;14.340;2024-01-11T08:00:43;-6.30;99.90
8591;DHT22;4333;48.322;14.340;2024-01-11T08:03:08;-6.30;99.90
8591;DHT22;4333;48.322;14.340;2024-01-11T08:05:34;-6.20;99.90
8591;DHT22;4333;48.322;14.340;2024-01-11T08:08:00;-6.30;99.90
8591;DHT22;4333;48.322;14.340;2024-01-11T08:10:28;-6.30;99.90
8591;DHT22;4333;48.322;14.340;2024-01-11T08:12:56;-6.20;99.90
8591;DHT22;4333;48.322;14.340;2024-01-11T08:15:22;-6.00;99.90
8591;DHT22;4333;48.322;14.340;2024-01-11T08:17:48;-6.00;99.90
8591;DHT22;4333;48.322;14.340;2024-01-11T08:20:14;-5.90;99.90
8591;DHT22;4333;48.322;14.340;2024-01-11T08:22:41;-5.90;99.90
8591;DHT22;4333;48.322;14.340;2024-01-11T08:25:09;-5.90;99.90
8591;DHT22;4333;48.322;14.340;2024-01-11T08:27:34;-5.90;99.90
8591;DHT22;4333;48.322;14.340;2024-01-11T08:30:03;-5.90;99.90
8591;DHT22;4333;48.322;14.340;2024-01-11T08:32:32;-5.90;99.90
8591;DHT22;4333;48.322;14.340;2024-01-11T08:35:08;-5.80;99.90
8591;DHT22;4333;48.322;14.340;2024-01-11T08:37:35;-5.70;99.90
8591;DHT22;4333;48.322;14.340;2024-01-11T08:40:02;-5.70;99.90
8591;DHT22;4333;48.322;14.340;2024-01-11T08:42:30;-5.70;99.90
8591;DHT22;4333;48.322;14.340;2024-01-11T08:44:58;-5.50;99.90
8591;DHT22;4333;48.322;14.340;2024-01-11T08:47:27;-5.50;99.90
8591;DHT22;4333;48.322;14.340;2024-01-11T08:49:53;-5.40;99.90
8591;DHT22;4333;48.322;14.340;2024-01-11T08:52:21;-5.30;99.90
8591;DHT22;4333;48.322;14.340;2024-01-11T08:54:48;-4.70;99.90
8591;DHT22;4333;48.322;14.340;2024-01-11T08:57:15;-4.00;99.90
8591;DHT22;4333;48.322;14.340;2024-01-11T08:59:41;-3.40;99.90
8591;DHT22;4333;48.322;14.340;2024-01-11T09:02:06;-2.50;99.90
8591;DHT22;4333;48.322;14.340;2024-01-11T09:04:32;-1.90;99.90
8591;DHT22;4333;48.322;14.340;2024-01-11T09:06:59;-1.20;98.80
8591;DHT22;4333;48.322;14.340;2024-01-11T09:09:28;-0.40;94.20
8591;DHT22;4333;48.322;14.340;2024-01-11T09:11:53;0.40;81.90
8591;DHT22;4333;48.322;14.340;2024-01-11T09:14:19;0.70;65.80
8591;DHT22;4333;48.322;14.340;2024-01-11T09:16:47;0.80;55.90
8591;DHT22;4333;48.322;14.340;2024-01-11T09:19:14;1.10;53.70
8591;DHT22;4333;48.322;14.340;2024-01-11T09:21:43;1.30;44.60
8591;DHT22;4333;48.322;14.340;2024-01-11T09:24:08;0.70;34.60
8591;DHT22;4333;48.322;14.340;2024-01-11T09:26:34;0.30;37.50
8591;DHT22;4333;48.322;14.340;2024-01-11T09:29:04;0.00;42.40
8591;DHT22;4333;48.322;14.340;2024-01-11T09:31:29;-0.60;44.10
8591;DHT22;4333;48.322;14.340;2024-01-11T09:33:55;-0.40;54.10
8591;DHT22;4333;48.322;14.340;2024-01-11T09:36:25;0.20;56.30
8591;DHT22;4333;48.322;14.340;2024-01-11T09:38:50;0.90;53.20
8591;DHT22;4333;48.322;14.340;2024-01-11T09:41:16;1.40;46.90
8591;DHT22;4333;48.322;14.340;2024-01-11T09:43:42;1.60;39.10
8591;DHT22;4333;48.322;14.340;2024-01-11T09:46:10;2.00;34.60
8591;DHT22;4333;48.322;14.340;2024-01-11T09:48:42;1.70;26.90
8591;DHT22;4333;48.322;14.340;2024-01-11T09:51:10;1.40;26.60
8591;DHT22;4333;48.322;14.340;2024-01-11T09:53:39;0.50;27.80
8591;DHT22;4333;48.322;14.340;2024-01-11T09:56:08;0.10;36.30
8591;DHT22;4333;48.322;14.340;2024-01-11T09:58:35;0.20;46.50
8591;DHT22;4333;48.322;14.340;2024-01-11T10:01:09;0.40;39.10
8591;DHT22;4333;48.322;14.340;2024-01-11T10:03:39;-0.40;40.90
8591;DHT22;4333;48.322;14.340;2024-01-11T10:06:06;-0.70;46.80
8591;DHT22;4333;48.322;14.340;2024-01-11T10:08:35;-0.90;53.20
8591;DHT22;4333;48.322;14.340;2024-01-11T10:11:02;-0.80;54.60
8591;DHT22;4333;48.322;14.340;2024-01-11T10:13:31;-1.10;51.90
8591;DHT22;4333;48.322;14.340;2024-01-11T10:16:11;-1.20;55.80
8591;DHT22;4333;48.322;14.340;2024-01-11T10:18:41;-0.70;64.30
8591;DHT22;4333;48.322;14.340;2024-01-11T10:21:10;-0.70;51.00
8591;DHT22;4333;48.322;14.340;2024-01-11T10:23:36;-0.60;51.60
8591;DHT22;4333;48.322;14.340;2024-01-11T10:26:04;-1.20;50.80
8591;DHT22;4333;48.322;14.340;2024-01-11T10:28:30;-1.50;57.50
8591;DHT22;4333;48.322;14.340;2024-01-11T10:30:56;-1.50;64.40
8591;DHT22;4333;48.322;14.340;2024-01-11T10:33:25;-1.20;64.00
8591;DHT22;4333;48.322;14.340;2024-01-11T10:35:51;-1.10;60.40
8591;DHT22;4333;48.322;14.340;2024-01-11T10:38:17;-0.60;62.40
8591;DHT22;4333;48.322;14.340;2024-01-11T10:40:43;-0.10;56.60
8591;DHT22;4333;48.322;14.340;2024-01-11T10:43:10;0.10;51.70
8591;DHT22;4333;48.322;14.340;2024-01-11T10:45:37;0.20;47.50
8591;DHT22;4333;48.322;14.340;2024-01-11T10:48:12;0.20;43.40
8591;DHT22;4333;48.322;14.340;2024-01-11T10:50:45;-0.10;42.20
8591;DHT22;4333;48.322;14.340;2024-01-11T10:53:43;0.00;43.70
8591;DHT22;4333;48.322;14.340;2024-01-11T10:56:13;-0.70;45.90
8591;DHT22;4333;48.322;14.340;2024-01-11T10:58:42;-0.80;54.50
8591;DHT22;4333;48.322;14.340;2024-01-11T11:01:10;-1.10;52.50
8591;DHT22;4333;48.322;14.340;2024-01-11T11:03:37;-1.00;55.10
8591;DHT22;4333;48.322;14.340;2024-01-11T11:06:06;-0.50;57.40
8591;DHT22;4333;48.322;14.340;2024-01-11T11:08:33;0.00;52.10
8591;DHT22;4333;48.322;14.340;2024-01-11T11:11:01;0.40;48.60
8591;DHT22;4333;48.322;14.340;2024-01-11T11:13:29;0.60;41.10
8591;DHT22;4333;48.322;14.340;2024-01-11T11:15:57;0.20;36.80
8591;DHT22;4333;48.322;14.340;2024-01-11T11:18:24;0.10;39.10
8591;DHT22;4333;48.322;14.340;2024-01-11T11:20:50;-0.20;41.20
8591;DHT22;4333;48.322;14.340;2024-01-11T11:23:18;-0.70;47.90
8591;DHT22;4333;48.322;14.340;2024-01-11T11:25:48;-0.70;52.40
8591;DHT22;4333;48.322;14.340;2024-01-11T11:28:18;-0.70;48.90
8591;DHT22;4333;48.322;14.340;2024-01-11T11:30:47;-0.60;53.10
8591;DHT22;4333;48.322;14.340;2024-01-11T11:33:18;-0.90;52.00
8591;DHT22;4333;48.322;14.340;2024-01-11T11:35:46;-0.60;56.10
8591;DHT22;4333;48.322;14.340;2024-01-11T11:38:31;-0.70;55.30
8591;DHT22;4333;48.322;14.340;2024-01-11T11:40:58;-0.50;54.50
8591;DHT22;4333;48.322;14.340;2024-01-11T11:43:26;-0.70;51.30
8591;DHT22;4333;48.322;14.340;2024-01-11T11:45:56;-0.50;51.70
8591;DHT22;4333;48.322;14.340;2024-01-11T11:51:10;0.50;51.20
8591;DHT22;4333;48.322;14.340;2024-01-11T11:53:36;0.80;40.90
8591;DHT22;4333;48.322;14.340;2024-01-11T11:56:03;0.50;38.60
8591;DHT22;4333;48.322;14.340;2024-01-11T11:58:29;0.30;41.10
8591;DHT22;4333;48.322;14.340;2024-01-11T12:00:57;0.30;42.90
8591;DHT22;4333;48.322;14.340;2024-01-11T12:03:31;0.10;43.90
8591;DHT22;4333;48.322;14.340;2024-01-11T12:05:58;0.40;48.00
8591;DHT22;4333;48.322;14.340;2024-01-11T12:08:24;0.40;46.60
8591;DHT22;4333;48.322;14.340;2024-01-11T12:10:51;0.00;43.30
8591;DHT22;4333;48.322;14.340;2024-01-11T12:13:18;-0.10;45.60
8591;DHT22;4333;48.322;14.340;2024-01-11T12:15:43;-0.20;49.60
8591;DHT22;4333;48.322;14.340;2024-01-11T12:18:12;-0.20;49.60
8591;DHT22;4333;48.322;14.340;2024-01-11T12:20:37;0.10;55.00
8591;DHT22;4333;48.322;14.340;2024-01-11T12:23:03;0.40;47.30
8591;DHT22;4333;48.322;14.340;2024-01-11T12:25:33;0.70;48.00
8591;DHT22;4333;48.322;14.340;2024-01-11T12:27:58;1.10;42.30
8591;DHT22;4333;48.322;14.340;2024-01-11T12:30:29;0.70;35.40
8591;DHT22;4333;48.322;14.340;2024-01-11T12:32:58;0.10;42.60
8591;DHT22;4333;48.322;14.340;2024-01-11T12:35:27;0.00;48.90
8591;DHT22;4333;48.322;14.340;2024-01-11T12:38:00;-0.20;51.30
8591;DHT22;4333;48.322;14.340;2024-01-11T12:40:31;-0.30;53.70
8591;DHT22;4333;48.322;14.340;2024-01-11T12:42:57;-0.20;53.20
8591;DHT22;4333;48.322;14.340;2024-01-11T12:45:24;0.10;54.50
8591;DHT22;4333;48.322;14.340;2024-01-11T12:47:54;0.10;50.80
8591;DHT22;4333;48.322;14.340;2024-01-11T12:50:22;0.00;50.20
8591;DHT22;4333;48.322;14.340;2024-01-11T12:53:13;0.00;53.30
8591;DHT22;4333;48.322;14.340;2024-01-11T12:55:47;-0.20;52.20
8591;DHT22;4333;48.322;14.340;2024-01-11T12:58:20;-0.40;55.70
8591;DHT22;4333;48.322;14.340;2024-01-11T13:00:49;-0.50;59.00
8591;DHT22;4333;48.322;14.340;2024-01-11T13:03:17;-0.30;58.80
8591;DHT22;4333;48.322;14.340;2024-01-11T13:05:45;-0.20;57.90
8591;DHT22;4333;48.322;14.340;2024-01-11T13:08:14;-0.30;56.10
8591;DHT22;4333;48.322;14.340;2024-01-11T13:10:42;-0.50;58.90
8591;DHT22;4333;48.322;14.340;2024-01-11T13:13:07;-0.50;59.90
8591;DHT22;4333;48.322;14.340;2024-01-11T13:15:34;-0.60;61.40
8591;DHT22;4333;48.322;14.340;2024-01-11T13:18:03;-0.70;62.00
8591;DHT22;4333;48.322;14.340;2024-01-11T13:20:30;-0.80;64.10
8591;DHT22;4333;48.322;14.340;2024-01-11T13:25:47;-0.60;66.50
8591;DHT22;4333;48.322;14.340;2024-01-11T13:28:17;-0.60;62.00
8591;DHT22;4333;48.322;14.340;2024-01-11T13:30:44;-0.60;61.60
8591;DHT22;4333;48.322;14.340;2024-01-11T13:33:17;-0.50;63.40
8591;DHT22;4333;48.322;14.340;2024-01-11T13:35:43;-0.40;59.80
8591;DHT22;4333;48.322;14.340;2024-01-11T13:38:09;-0.40;61.00
8591;DHT22;4333;48.322;14.340;2024-01-11T13:40:36;-0.40;60.20
8591;DHT22;4333;48.322;14.340;2024-01-11T13:43:07;-0.40;59.60
8591;DHT22;4333;48.322;14.340;2024-01-11T13:45:33;-0.20;61.80
8591;DHT22;4333;48.322;14.340;2024-01-11T13:48:02;-0.40;59.00
8591;DHT22;4333;48.322;14.340;2024-01-11T13:50:28;-0.50;61.30
8591;DHT22;4333;48.322;14.340;2024-01-11T13:52:54;-0.60;63.70
8591;DHT22;4333;48.322;14.340;2024-01-11T13:55:22;-0.60;66.40
8591;DHT22;4333;48.322;14.340;2024-01-11T13:57:51;-0.60;67.70
8591;DHT22;4333;48.322;14.340;2024-01-11T14:00:20;-0.70;71.90
8591;DHT22;4333;48.322;14.340;2024-01-11T14:02:47;-0.80;73.40
8591;DHT22;4333;48.322;14.340;2024-01-11T14:05:14;-0.70;74.60
8591;DHT22;4333;48.322;14.340;2024-01-11T14:07:43;-0.80;73.90
8591;DHT22;4333;48.322;14.340;2024-01-11T14:10:14;-0.90;76.50
8591;DHT22;4333;48.322;14.340;2024-01-11T14:12:42;-0.80;78.40
8591;DHT22;4333;48.322;14.340;2024-01-11T14:15:12;-0.90;77.50
8591;DHT22;4333;48.322;14.340;2024-01-11T14:17:40;-0.90;79.40
8591;DHT22;4333;48.322;14.340;2024-01-11T14:20:09;-1.10;82.00
8591;DHT22;4333;48.322;14.340;2024-01-11T14:22:40;-0.90;83.70
8591;DHT22;4333;48.322;14.340;2024-01-11T14:25:17;-0.90;79.40
8591;DHT22;4333;48.322;14.340;2024-01-11T14:27:43;-1.00;79.80
8591;DHT22;4333;48.322;14.340;2024-01-11T14:30:12;-0.80;82.70
8591;DHT22;4333;48.322;14.340;2024-01-11T14:32:40;-0.70;79.20
8591;DHT22;4333;48.322;14.340;2024-01-11T14:35:07;-0.80;79.30
8591;DHT22;4333;48.322;14.340;2024-01-11T14:37:37;-0.90;82.20
8591;DHT22;4333;48.322;14.340;2024-01-11T14:40:04;-1.00;84.10
8591;DHT22;4333;48.322;14.340;2024-01-11T14:42:31;-0.90;87.00
8591;DHT22;4333;48.322;14.340;2024-01-11T14:44:57;-0.70;86.80
8591;DHT22;4333;48.322;14.340;2024-01-11T14:47:23;-0.80;81.00
8591;DHT22;4333;48.322;14.340;2024-01-11T14:49:49;-1.00;82.70
8591;DHT22;4333;48.322;14.340;2024-01-11T14:52:18;-1.20;90.20
8591;DHT22;4333;48.322;14.340;2024-01-11T14:54:47;-1.20;92.00
8591;DHT22;4333;48.322;14.340;2024-01-11T14:57:15;-1.40;93.20
8591;DHT22;4333;48.322;14.340;2024-01-11T14:59:45;-1.50;95.70
8591;DHT22;4333;48.322;14.340;2024-01-11T15:02:12;-1.60;97.40
8591;DHT22;4333;48.322;14.340;2024-01-11T15:04:38;-1.70;99.00
8591;DHT22;4333;48.322;14.340;2024-01-11T15:07:06;-1.80;99.90
8591;DHT22;4333;48.322;14.340;2024-01-11T15:09:38;-1.80;99.90
8591;DHT22;4333;48.322;14.340;2024-01-11T15:12:04;-1.90;99.90
8591;DHT22;4333;48.322;14.340;2024-01-11T15:14:32;-1.90;99.90
8591;DHT22;4333;48.322;14.340;2024-01-11T15:17:01;-1.90;99.90
8591;DHT22;4333;48.322;14.340;2024-01-11T15:19:28;-2.00;99.90
8591;DHT22;4333;48.322;14.340;2024-01-11T15:21:55;-2.00;99.90
8591;DHT22;4333;48.322;14.340;2024-01-11T15:24:23;-2.10;99.90
8591;DHT22;4333;48.322;14.340;2024-01-11T15:26:53;-2.10;99.90
8591;DHT22;4333;48.322;14.340;2024-01-11T15:29:19;-2.10;99.90
8591;DHT22;4333;48.322;14.340;2024-01-11T15:31:50;-2.10;99.90
8591;DHT22;4333;48.322;14.340;2024-01-11T15:34:16;-2.20;99.90
8591;DHT22;4333;48.322;14.340;2024-01-11T15:36:44;-2.20;99.90
8591;DHT22;4333;48.322;14.340;2024-01-11T15:39:12;-2.30;99.90
8591;DHT22;4333;48.322;14.340;2024-01-11T15:41:38;-2.30;99.90
8591;DHT22;4333;48.322;14.340;2024-01-11T15:44:06;-2.30;99.90
8591;DHT22;4333;48.322;14.340;2024-01-11T15:46:32;-2.30;99.90
8591;DHT22;4333;48.322;14.340;2024-01-11T15:49:03;-2.50;99.90
8591;DHT22;4333;48.322;14.340;2024-01-11T15:51:31;-2.60;99.90
8591;DHT22;4333;48.322;14.340;2024-01-11T15:53:57;-2.60;99.90